sensor_id;sensor_type;location;lat;lon;timestamp;P1;durP1;ratioP1;P2;durP2;ratioP2
6027;SDS011;3042;43.194;27.646;2023-04-08T00:01:32;49.47;;;34.70;;
6027;SDS011;3042;43.194;27.646;2023-04-08T00:04:16;35.87;;;31.97;;
6027;SDS011;3042;43.194;27.646;2023-04-08T00:07:09;49.93;;;32.47;;
6027;SDS011;3042;43.194;27.646;2023-04-08T00:09:47;46.10;;;35.33;;
6027;SDS011;3042;43.194;27.646;2023-04-08T00:12:26;44.23;;;34.80;;
6027;SDS011;3042;43.194;27.646;2023-04-08T00:15:07;34.17;;;31.07;;
6027;SDS011;3042;43.194;27.646;2023-04-08T00:17:47;35.07;;;31.77;;
6027;SDS011;3042;43.194;27.646;2023-04-08T00:20:29;40.43;;;31.23;;
6027;SDS011;3042;43.194;27.646;2023-04-08T00:23:14;34.00;;;30.40;;
6027;SDS011;3042;43.194;27.646;2023-04-08T00:25:58;34.20;;;31.20;;
6027;SDS011;3042;43.194;27.646;2023-04-08T00:28:40;36.07;;;32.17;;
6027;SDS011;3042;43.194;27.646;2023-04-08T00:31:22;60.00;;;34.43;;
6027;SDS011;3042;43.194;27.646;2023-04-08T00:34:04;58.10;;;31.43;;
6027;SDS011;3042;43.194;27.646;2023-04-08T00:36:46;61.23;;;36.87;;
6027;SDS011;3042;43.194;27.646;2023-04-08T00:39:38;44.90;;;34.10;;
6027;SDS011;3042;43.194;27.646;2023-04-08T00:42:15;36.70;;;32.90;;
6027;SDS011;3042;43.194;27.646;2023-04-08T00:45:00;37.77;;;33.87;;
6027;SDS011;3042;43.194;27.646;2023-04-08T00:47:40;36.93;;;33.33;;
6027;SDS011;3042;43.194;27.646;2023-04-08T00:50:21;42.97;;;34.20;;
6027;SDS011;3042;43.194;27.646;2023-04-08T00:52:59;40.00;;;34.83;;
6027;SDS011;3042;43.194;27.646;2023-04-08T00:55:39;35.70;;;32.17;;
6027;SDS011;3042;43.194;27.646;2023-04-08T00:58:10;41.53;;;33.73;;
6027;SDS011;3042;43.194;27.646;2023-04-08T01:00:57;37.33;;;33.57;;
6027;SDS011;3042;43.194;27.646;2023-04-08T01:03:43;50.83;;;34.70;;
6027;SDS011;3042;43.194;27.646;2023-04-08T01:06:31;33.10;;;30.20;;
6027;SDS011;3042;43.194;27.646;2023-04-08T01:09:22;40.60;;;32.80;;
6027;SDS011;3042;43.194;27.646;2023-04-08T01:12:12;40.13;;;31.90;;
6027;SDS011;3042;43.194;27.646;2023-04-08T01:15:02;35.80;;;32.60;;
6027;SDS011;3042;43.194;27.646;2023-04-08T01:17:44;35.90;;;32.70;;
6027;SDS011;3042;43.194;27.646;2023-04-08T01:20:24;35.57;;;32.37;;
6027;SDS011;3042;43.194;27.646;2023-04-08T01:23:07;49.83;;;36.97;;
6027;SDS011;3042;43.194;27.646;2023-04-08T01:25:57;35.10;;;32.00;;
6027;SDS011;3042;43.194;27.646;2023-04-08T01:28:36;35.03;;;31.43;;
6027;SDS011;3042;43.194;27.646;2023-04-08T01:31:21;35.80;;;32.50;;
6027;SDS011;3042;43.194;27.646;2023-04-08T01:34:13;35.90;;;32.00;;
6027;SDS011;3042;43.194;27.646;2023-04-08T01:36:53;43.93;;;35.00;;
6027;SDS011;3042;43.194;27.646;2023-04-08T01:39:34;35.03;;;31.60;;
6027;SDS011;3042;43.194;27.646;2023-04-08T01:42:20;35.07;;;31.43;;
6027;SDS011;3042;43.194;27.646;2023-04-08T01:45:03;36.00;;;32.33;;
6027;SDS011;3042;43.194;27.646;2023-04-08T01:47:45;57.13;;;35.30;;
6027;SDS011;3042;43.194;27.646;2023-04-08T01:50:26;36.10;;;32.27;;
6027;SDS011;3042;43.194;27.646;2023-04-08T01:53:06;44.50;;;34.53;;
6027;SDS011;3042;43.194;27.646;2023-04-08T01:55:48;36.67;;;32.77;;
6027;SDS011;3042;43.194;27.646;2023-04-08T01:58:36;37.87;;;33.37;;
6027;SDS011;3042;43.194;27.646;2023-04-08T02:01:19;37.27;;;33.40;;
6027;SDS011;3042;43.194;27.646;2023-04-08T02:04:00;43.03;;;33.40;;
6027;SDS011;3042;43.194;27.646;2023-04-08T02:06:40;38.70;;;31.97;;
6027;SDS011;3042;43.194;27.646;2023-04-08T02:09:21;46.97;;;32.80;;
6027;SDS011;3042;43.194;27.646;2023-04-08T02:12:02;39.57;;;32.50;;
6027;SDS011;3042;43.194;27.646;2023-04-08T02:14:52;37.33;;;32.30;;
6027;SDS011;3042;43.194;27.646;2023-04-08T02:17:34;55.10;;;32.57;;
6027;SDS011;3042;43.194;27.646;2023-04-08T02:20:24;41.93;;;34.70;;
6027;SDS011;3042;43.194;27.646;2023-04-08T02:23:10;37.77;;;33.33;;
6027;SDS011;3042;43.194;27.646;2023-04-08T02:25:55;36.60;;;32.77;;
6027;SDS011;3042;43.194;27.646;2023-04-08T02:28:37;37.97;;;33.97;;
6027;SDS011;3042;43.194;27.646;2023-04-08T02:31:25;42.93;;;33.60;;
6027;SDS011;3042;43.194;27.646;2023-04-08T02:34:06;41.83;;;35.13;;
6027;SDS011;3042;43.194;27.646;2023-04-08T02:36:49;38.20;;;34.57;;
6027;SDS011;3042;43.194;27.646;2023-04-08T02:39:34;37.80;;;34.23;;
6027;SDS011;3042;43.194;27.646;2023-04-08T02:42:32;40.67;;;36.40;;
6027;SDS011;3042;43.194;27.646;2023-04-08T02:45:12;38.73;;;34.13;;
6027;SDS011;3042;43.194;27.646;2023-04-08T02:47:59;40.40;;;36.30;;
6027;SDS011;3042;43.194;27.646;2023-04-08T02:50:41;52.03;;;34.10;;
6027;SDS011;3042;43.194;27.646;2023-04-08T02:53:08;37.97;;;32.90;;
6027;SDS011;3042;43.194;27.646;2023-04-08T02:55:35;41.87;;;36.10;;
6027;SDS011;3042;43.194;27.646;2023-04-08T02:58:03;40.90;;;35.77;;
6027;SDS011;3042;43.194;27.646;2023-04-08T03:00:35;39.20;;;35.57;;
6027;SDS011;3042;43.194;27.646;2023-04-08T03:03:06;38.10;;;34.60;;
6027;SDS011;3042;43.194;27.646;2023-04-08T03:05:33;41.17;;;36.10;;
6027;SDS011;3042;43.194;27.646;2023-04-08T03:08:00;39.10;;;34.90;;
6027;SDS011;3042;43.194;27.646;2023-04-08T03:10:27;49.20;;;35.70;;
6027;SDS011;3042;43.194;27.646;2023-04-08T03:12:55;39.87;;;35.57;;
6027;SDS011;3042;43.194;27.646;2023-04-08T03:15:25;47.70;;;35.20;;
6027;SDS011;3042;43.194;27.646;2023-04-08T03:17:53;41.27;;;33.30;;
6027;SDS011;3042;43.194;27.646;2023-04-08T03:20:22;35.13;;;31.97;;
6027;SDS011;3042;43.194;27.646;2023-04-08T03:22:50;35.27;;;32.20;;
6027;SDS011;3042;43.194;27.646;2023-04-08T03:25:17;36.67;;;33.03;;
6027;SDS011;3042;43.194;27.646;2023-04-08T03:27:44;38.27;;;34.67;;
6027;SDS011;3042;43.194;27.646;2023-04-08T03:30:13;35.50;;;32.07;;
6027;SDS011;3042;43.194;27.646;2023-04-08T03:32:40;34.93;;;31.30;;
6027;SDS011;3042;43.194;27.646;2023-04-08T03:35:07;36.93;;;33.03;;
6027;SDS011;3042;43.194;27.646;2023-04-08T03:37:36;36.43;;;32.87;;
6027;SDS011;3042;43.194;27.646;2023-04-08T03:40:06;36.03;;;31.00;;
6027;SDS011;3042;43.194;27.646;2023-04-08T03:42:42;41.00;;;36.90;;
6027;SDS011;3042;43.194;27.646;2023-04-08T03:45:10;42.63;;;35.07;;
6027;SDS011;3042;43.194;27.646;2023-04-08T03:47:37;45.63;;;34.27;;
6027;SDS011;3042;43.194;27.646;2023-04-08T03:50:04;55.15;;;37.03;;
6027;SDS011;3042;43.194;27.646;2023-04-08T03:52:32;36.17;;;32.83;;
6027;SDS011;3042;43.194;27.646;2023-04-08T03:55:00;41.83;;;32.70;;
6027;SDS011;3042;43.194;27.646;2023-04-08T03:57:28;35.37;;;31.93;;
6027;SDS011;3042;43.194;27.646;2023-04-08T03:59:55;37.63;;;33.80;;
6027;SDS011;3042;43.194;27.646;2023-04-08T04:02:22;32.83;;;30.03;;
6027;SDS011;3042;43.194;27.646;2023-04-08T04:04:49;51.07;;;33.87;;
6027;SDS011;3042;43.194;27.646;2023-04-08T04:07:16;37.90;;;33.93;;
6027;SDS011;3042;43.194;27.646;2023-04-08T04:09:43;35.73;;;32.03;;
6027;SDS011;3042;43.194;27.646;2023-04-08T04:12:12;34.27;;;30.57;;
6027;SDS011;3042;43.194;27.646;2023-04-08T04:14:39;36.20;;;32.17;;
6027;SDS011;3042;43.194;27.646;2023-04-08T04:17:06;33.83;;;30.87;;
6027;SDS011;3042;43.194;27.646;2023-04-08T04:19:33;37.83;;;33.73;;
6027;SDS011;3042;43.194;27.646;2023-04-08T04:22:00;35.43;;;30.63;;
6027;SDS011;3042;43.194;27.646;2023-04-08T04:24:28;48.80;;;32.60;;
6027;SDS011;3042;43.194;27.646;2023-04-08T04:26:55;38.17;;;32.53;;
6027;SDS011;3042;43.194;27.646;2023-04-08T04:29:23;39.80;;;32.17;;
6027;SDS011;3042;43.194;27.646;2023-04-08T04:31:50;39.93;;;31.93;;
6027;SDS011;3042;43.194;27.646;2023-04-08T04:34:18;48.40;;;32.87;;
6027;SDS011;3042;43.194;27.646;2023-04-08T04:36:52;42.40;;;31.23;;
6027;SDS011;3042;43.194;27.646;2023-04-08T04:39:25;35.60;;;31.57;;
6027;SDS011;3042;43.194;27.646;2023-04-08T04:41:55;36.83;;;31.97;;
6027;SDS011;3042;43.194;27.646;2023-04-08T04:44:28;33.40;;;30.37;;
6027;SDS011;3042;43.194;27.646;2023-04-08T04:46:57;34.10;;;30.20;;
6027;SDS011;3042;43.194;27.646;2023-04-08T04:49:27;36.60;;;33.10;;
6027;SDS011;3042;43.194;27.646;2023-04-08T04:51:57;39.20;;;34.07;;
6027;SDS011;3042;43.194;27.646;2023-04-08T04:54:27;46.03;;;34.10;;
6027;SDS011;3042;43.194;27.646;2023-04-08T04:56:54;41.23;;;30.87;;
6027;SDS011;3042;43.194;27.646;2023-04-08T04:59:27;33.13;;;30.07;;
6027;SDS011;3042;43.194;27.646;2023-04-08T05:01:57;36.67;;;33.07;;
6027;SDS011;3042;43.194;27.646;2023-04-08T05:04:26;36.10;;;30.67;;
6027;SDS011;3042;43.194;27.646;2023-04-08T05:06:53;47.87;;;35.60;;
6027;SDS011;3042;43.194;27.646;2023-04-08T05:09:24;39.90;;;33.10;;
6027;SDS011;3042;43.194;27.646;2023-04-08T05:11:51;48.73;;;34.83;;
6027;SDS011;3042;43.194;27.646;2023-04-08T05:14:18;45.70;;;34.60;;
6027;SDS011;3042;43.194;27.646;2023-04-08T05:16:47;38.33;;;34.40;;
6027;SDS011;3042;43.194;27.646;2023-04-08T05:19:14;39.33;;;34.40;;
6027;SDS011;3042;43.194;27.646;2023-04-08T05:21:42;40.83;;;34.40;;
6027;SDS011;3042;43.194;27.646;2023-04-08T05:24:11;48.93;;;36.50;;
6027;SDS011;3042;43.194;27.646;2023-04-08T05:26:42;42.80;;;35.97;;
6027;SDS011;3042;43.194;27.646;2023-04-08T05:29:11;38.60;;;34.53;;
6027;SDS011;3042;43.194;27.646;2023-04-08T05:31:41;49.37;;;37.67;;
6027;SDS011;3042;43.194;27.646;2023-04-08T05:34:12;71.50;;;40.57;;
6027;SDS011;3042;43.194;27.646;2023-04-08T05:36:42;52.83;;;39.60;;
6027;SDS011;3042;43.194;27.646;2023-04-08T05:39:12;66.23;;;38.80;;
6027;SDS011;3042;43.194;27.646;2023-04-08T05:41:42;57.53;;;37.40;;
6027;SDS011;3042;43.194;27.646;2023-04-08T05:44:10;67.77;;;39.33;;
6027;SDS011;3042;43.194;27.646;2023-04-08T05:46:37;66.77;;;37.87;;
6027;SDS011;3042;43.194;27.646;2023-04-08T05:49:04;86.43;;;35.47;;
6027;SDS011;3042;43.194;27.646;2023-04-08T05:51:33;57.40;;;37.10;;
6027;SDS011;3042;43.194;27.646;2023-04-08T05:54:00;83.67;;;37.97;;
6027;SDS011;3042;43.194;27.646;2023-04-08T05:56:30;152.80;;;43.73;;
6027;SDS011;3042;43.194;27.646;2023-04-08T05:58:57;106.17;;;40.70;;
6027;SDS011;3042;43.194;27.646;2023-04-08T06:01:26;88.10;;;38.00;;
6027;SDS011;3042;43.194;27.646;2023-04-08T06:03:57;77.60;;;37.60;;
6027;SDS011;3042;43.194;27.646;2023-04-08T06:06:26;60.57;;;39.73;;
6027;SDS011;3042;43.194;27.646;2023-04-08T06:08:59;117.23;;;41.73;;
6027;SDS011;3042;43.194;27.646;2023-04-08T06:11:26;68.20;;;39.00;;
6027;SDS011;3042;43.194;27.646;2023-04-08T06:13:53;63.23;;;38.60;;
6027;SDS011;3042;43.194;27.646;2023-04-08T06:16:20;70.43;;;37.20;;
6027;SDS011;3042;43.194;27.646;2023-04-08T06:18:47;81.50;;;38.37;;
6027;SDS011;3042;43.194;27.646;2023-04-08T06:21:14;39.17;;;33.93;;
6027;SDS011;3042;43.194;27.646;2023-04-08T06:23:42;139.00;;;44.37;;
6027;SDS011;3042;43.194;27.646;2023-04-08T06:26:15;38.87;;;34.60;;
6027;SDS011;3042;43.194;27.646;2023-04-08T06:28:42;38.67;;;33.97;;
6027;SDS011;3042;43.194;27.646;2023-04-08T06:31:13;36.13;;;32.53;;
6027;SDS011;3042;43.194;27.646;2023-04-08T06:33:44;46.47;;;33.77;;
6027;SDS011;3042;43.194;27.646;2023-04-08T06:36:11;50.63;;;34.30;;
6027;SDS011;3042;43.194;27.646;2023-04-08T06:38:41;39.63;;;32.63;;
6027;SDS011;3042;43.194;27.646;2023-04-08T06:41:13;38.90;;;30.20;;
6027;SDS011;3042;43.194;27.646;2023-04-08T06:43:43;62.13;;;32.07;;
6027;SDS011;3042;43.194;27.646;2023-04-08T06:46:11;79.70;;;34.73;;
6027;SDS011;3042;43.194;27.646;2023-04-08T06:48:40;43.50;;;32.20;;
6027;SDS011;3042;43.194;27.646;2023-04-08T06:51:11;37.13;;;32.23;;
6027;SDS011;3042;43.194;27.646;2023-04-08T06:53:40;84.50;;;36.60;;
6027;SDS011;3042;43.194;27.646;2023-04-08T06:56:12;38.87;;;32.53;;
6027;SDS011;3042;43.194;27.646;2023-04-08T06:58:43;47.67;;;33.27;;
6027;SDS011;3042;43.194;27.646;2023-04-08T07:01:11;107.27;;;35.97;;
6027;SDS011;3042;43.194;27.646;2023-04-08T07:03:40;40.23;;;31.50;;
6027;SDS011;3042;43.194;27.646;2023-04-08T07:06:07;30.87;;;27.70;;
6027;SDS011;3042;43.194;27.646;2023-04-08T07:08:34;63.00;;;33.10;;
6027;SDS011;3042;43.194;27.646;2023-04-08T07:11:03;38.00;;;29.10;;
6027;SDS011;3042;43.194;27.646;2023-04-08T07:13:30;87.33;;;34.87;;
6027;SDS011;3042;43.194;27.646;2023-04-08T07:15:59;46.30;;;30.30;;
6027;SDS011;3042;43.194;27.646;2023-04-08T07:18:26;55.07;;;31.23;;
6027;SDS011;3042;43.194;27.646;2023-04-08T07:20:53;31.47;;;28.13;;
6027;SDS011;3042;43.194;27.646;2023-04-08T07:23:22;109.33;;;29.63;;
6027;SDS011;3042;43.194;27.646;2023-04-08T07:25:49;60.73;;;32.83;;
6027;SDS011;3042;43.194;27.646;2023-04-08T07:28:16;38.03;;;29.40;;
6027;SDS011;3042;43.194;27.646;2023-04-08T07:30:44;40.83;;;29.50;;
6027;SDS011;3042;43.194;27.646;2023-04-08T07:33:14;31.27;;;28.30;;
6027;SDS011;3042;43.194;27.646;2023-04-08T07:35:42;44.47;;;27.23;;
6027;SDS011;3042;43.194;27.646;2023-04-08T07:38:09;28.13;;;25.17;;
6027;SDS011;3042;43.194;27.646;2023-04-08T07:40:37;31.57;;;26.27;;
6027;SDS011;3042;43.194;27.646;2023-04-08T07:43:04;31.53;;;26.00;;
6027;SDS011;3042;43.194;27.646;2023-04-08T07:45:33;34.57;;;25.43;;
6027;SDS011;3042;43.194;27.646;2023-04-08T07:48:00;37.30;;;26.67;;
6027;SDS011;3042;43.194;27.646;2023-04-08T07:50:29;46.87;;;26.90;;
6027;SDS011;3042;43.194;27.646;2023-04-08T07:52:56;53.57;;;28.17;;
6027;SDS011;3042;43.194;27.646;2023-04-08T07:55:23;62.97;;;26.87;;
6027;SDS011;3042;43.194;27.646;2023-04-08T07:57:50;29.27;;;25.83;;
6027;SDS011;3042;43.194;27.646;2023-04-08T08:00:18;98.83;;;30.70;;
6027;SDS011;3042;43.194;27.646;2023-04-08T08:02:46;75.68;;;28.65;;
6027;SDS011;3042;43.194;27.646;2023-04-08T08:05:13;81.17;;;30.03;;
6027;SDS011;3042;43.194;27.646;2023-04-08T08:07:42;30.43;;;24.20;;
6027;SDS011;3042;43.194;27.646;2023-04-08T08:10:09;46.77;;;25.83;;
6027;SDS011;3042;43.194;27.646;2023-04-08T08:12:36;29.77;;;27.37;;
6027;SDS011;3042;43.194;27.646;2023-04-08T08:15:04;73.40;;;28.83;;
6027;SDS011;3042;43.194;27.646;2023-04-08T08:17:32;84.57;;;29.33;;
6027;SDS011;3042;43.194;27.646;2023-04-08T08:19:59;26.57;;;24.07;;
6027;SDS011;3042;43.194;27.646;2023-04-08T08:22:26;54.50;;;26.53;;
6027;SDS011;3042;43.194;27.646;2023-04-08T08:24:58;39.20;;;25.13;;
6027;SDS011;3042;43.194;27.646;2023-04-08T08:27:25;31.40;;;27.40;;
6027;SDS011;3042;43.194;27.646;2023-04-08T08:29:52;36.87;;;27.70;;
6027;SDS011;3042;43.194;27.646;2023-04-08T08:32:19;31.87;;;26.20;;
6027;SDS011;3042;43.194;27.646;2023-04-08T08:34:46;62.57;;;26.63;;
6027;SDS011;3042;43.194;27.646;2023-04-08T08:37:14;39.37;;;21.00;;
6027;SDS011;3042;43.194;27.646;2023-04-08T08:39:41;26.13;;;22.70;;
6027;SDS011;3042;43.194;27.646;2023-04-08T08:42:18;40.60;;;26.03;;
6027;SDS011;3042;43.194;27.646;2023-04-08T08:44:46;29.17;;;26.07;;
6027;SDS011;3042;43.194;27.646;2023-04-08T08:47:14;43.53;;;24.83;;
6027;SDS011;3042;43.194;27.646;2023-04-08T08:49:41;75.70;;;25.97;;
6027;SDS011;3042;43.194;27.646;2023-04-08T08:52:09;25.03;;;23.03;;
6027;SDS011;3042;43.194;27.646;2023-04-08T08:54:36;27.03;;;24.27;;
6027;SDS011;3042;43.194;27.646;2023-04-08T08:57:04;23.83;;;21.33;;
6027;SDS011;3042;43.194;27.646;2023-04-08T08:59:32;23.60;;;21.50;;
6027;SDS011;3042;43.194;27.646;2023-04-08T09:02:00;23.70;;;20.20;;
6027;SDS011;3042;43.194;27.646;2023-04-08T09:04:27;27.27;;;22.63;;
6027;SDS011;3042;43.194;27.646;2023-04-08T09:07:07;23.93;;;22.27;;
6027;SDS011;3042;43.194;27.646;2023-04-08T09:09:46;20.50;;;19.20;;
6027;SDS011;3042;43.194;27.646;2023-04-08T09:12:15;21.10;;;19.70;;
6027;SDS011;3042;43.194;27.646;2023-04-08T09:14:44;21.97;;;20.47;;
6027;SDS011;3042;43.194;27.646;2023-04-08T09:17:11;22.23;;;20.43;;
6027;SDS011;3042;43.194;27.646;2023-04-08T09:19:38;25.53;;;23.47;;
6027;SDS011;3042;43.194;27.646;2023-04-08T09:22:26;22.60;;;21.03;;
6027;SDS011;3042;43.194;27.646;2023-04-08T09:24:54;22.00;;;20.50;;
6027;SDS011;3042;43.194;27.646;2023-04-08T09:27:32;22.37;;;20.70;;
6027;SDS011;3042;43.194;27.646;2023-04-08T09:30:13;23.33;;;21.03;;
6027;SDS011;3042;43.194;27.646;2023-04-08T09:32:47;24.03;;;21.70;;
6027;SDS011;3042;43.194;27.646;2023-04-08T09:35:24;22.03;;;19.80;;
6027;SDS011;3042;43.194;27.646;2023-04-08T09:37:55;23.73;;;20.90;;
6027;SDS011;3042;43.194;27.646;2023-04-08T09:40:22;23.50;;;21.90;;
6027;SDS011;3042;43.194;27.646;2023-04-08T09:43:01;23.20;;;21.50;;
6027;SDS011;3042;43.194;27.646;2023-04-08T09:45:33;23.60;;;21.90;;
6027;SDS011;3042;43.194;27.646;2023-04-08T09:48:16;22.40;;;20.80;;
6027;SDS011;3042;43.194;27.646;2023-04-08T09:50:50;23.30;;;21.50;;
6027;SDS011;3042;43.194;27.646;2023-04-08T09:53:29;24.50;;;22.50;;
6027;SDS011;3042;43.194;27.646;2023-04-08T09:56:06;25.00;;;23.27;;
6027;SDS011;3042;43.194;27.646;2023-04-08T09:58:38;46.73;;;25.60;;
6027;SDS011;3042;43.194;27.646;2023-04-08T10:01:14;24.87;;;22.30;;
6027;SDS011;3042;43.194;27.646;2023-04-08T10:03:57;21.53;;;19.70;;
6027;SDS011;3042;43.194;27.646;2023-04-08T10:06:26;44.77;;;21.60;;
6027;SDS011;3042;43.194;27.646;2023-04-08T10:08:55;22.50;;;20.20;;
6027;SDS011;3042;43.194;27.646;2023-04-08T10:11:23;65.53;;;22.00;;
6027;SDS011;3042;43.194;27.646;2023-04-08T10:13:50;47.87;;;20.77;;
6027;SDS011;3042;43.194;27.646;2023-04-08T10:16:24;28.00;;;20.63;;
6027;SDS011;3042;43.194;27.646;2023-04-08T10:18:52;20.80;;;19.40;;
6027;SDS011;3042;43.194;27.646;2023-04-08T10:21:30;25.50;;;22.10;;
6027;SDS011;3042;43.194;27.646;2023-04-08T10:24:09;60.80;;;22.90;;
6027;SDS011;3042;43.194;27.646;2023-04-08T10:26:37;23.07;;;21.17;;
6027;SDS011;3042;43.194;27.646;2023-04-08T10:32:00;70.57;;;25.20;;
6027;SDS011;3042;43.194;27.646;2023-04-08T10:34:27;21.90;;;20.27;;
6027;SDS011;3042;43.194;27.646;2023-04-08T10:36:55;60.63;;;23.67;;
6027;SDS011;3042;43.194;27.646;2023-04-08T10:39:26;24.17;;;20.60;;
6027;SDS011;3042;43.194;27.646;2023-04-08T10:41:53;41.63;;;24.70;;
6027;SDS011;3042;43.194;27.646;2023-04-08T10:44:22;25.63;;;23.10;;
6027;SDS011;3042;43.194;27.646;2023-04-08T10:46:51;22.43;;;20.10;;
6027;SDS011;3042;43.194;27.646;2023-04-08T10:49:21;24.23;;;21.90;;
6027;SDS011;3042;43.194;27.646;2023-04-08T10:51:48;53.07;;;22.07;;
6027;SDS011;3042;43.194;27.646;2023-04-08T10:54:16;20.40;;;18.90;;
6027;SDS011;3042;43.194;27.646;2023-04-08T10:56:44;27.97;;;20.70;;
6027;SDS011;3042;43.194;27.646;2023-04-08T10:59:13;24.00;;;20.93;;
6027;SDS011;3042;43.194;27.646;2023-04-08T11:01:42;29.30;;;21.30;;
6027;SDS011;3042;43.194;27.646;2023-04-08T11:04:11;54.13;;;22.20;;
6027;SDS011;3042;43.194;27.646;2023-04-08T11:06:42;22.30;;;20.50;;
6027;SDS011;3042;43.194;27.646;2023-04-08T11:09:10;25.20;;;22.83;;
6027;SDS011;3042;43.194;27.646;2023-04-08T11:11:37;24.37;;;22.07;;
6027;SDS011;3042;43.194;27.646;2023-04-08T11:14:06;42.47;;;22.60;;
6027;SDS011;3042;43.194;27.646;2023-04-08T11:16:34;25.63;;;22.93;;
6027;SDS011;3042;43.194;27.646;2023-04-08T11:19:03;28.97;;;20.97;;
6027;SDS011;3042;43.194;27.646;2023-04-08T11:21:30;22.60;;;20.50;;
6027;SDS011;3042;43.194;27.646;2023-04-08T11:24:02;25.03;;;22.60;;
6027;SDS011;3042;43.194;27.646;2023-04-08T11:26:32;37.17;;;21.80;;
6027;SDS011;3042;43.194;27.646;2023-04-08T11:28:59;23.13;;;20.80;;
6027;SDS011;3042;43.194;27.646;2023-04-08T11:31:28;22.30;;;20.20;;
6027;SDS011;3042;43.194;27.646;2023-04-08T11:33:56;39.10;;;22.70;;
6027;SDS011;3042;43.194;27.646;2023-04-08T11:36:23;25.80;;;20.63;;
6027;SDS011;3042;43.194;27.646;2023-04-08T11:38:52;90.87;;;26.67;;
6027;SDS011;3042;43.194;27.646;2023-04-08T11:41:21;49.50;;;23.10;;
6027;SDS011;3042;43.194;27.646;2023-04-08T11:43:52;49.60;;;23.33;;
6027;SDS011;3042;43.194;27.646;2023-04-08T11:46:20;22.50;;;19.17;;
6027;SDS011;3042;43.194;27.646;2023-04-08T11:54:25;40.30;;;21.97;;
6027;SDS011;3042;43.194;27.646;2023-04-08T11:56:54;30.47;;;20.10;;
6027;SDS011;3042;43.194;27.646;2023-04-08T11:59:22;44.53;;;21.40;;
6027;SDS011;3042;43.194;27.646;2023-04-08T12:01:50;31.93;;;22.23;;
6027;SDS011;3042;43.194;27.646;2023-04-08T12:04:17;21.47;;;19.43;;
6027;SDS011;3042;43.194;27.646;2023-04-08T12:06:44;23.00;;;21.00;;
6027;SDS011;3042;43.194;27.646;2023-04-08T12:09:12;22.33;;;20.73;;
6027;SDS011;3042;43.194;27.646;2023-04-08T12:11:39;20.93;;;19.43;;
6027;SDS011;3042;43.194;27.646;2023-04-08T12:14:08;20.37;;;18.77;;
6027;SDS011;3042;43.194;27.646;2023-04-08T12:16:35;21.83;;;19.80;;
6027;SDS011;3042;43.194;27.646;2023-04-08T12:19:02;69.23;;;24.23;;
6027;SDS011;3042;43.194;27.646;2023-04-08T12:21:29;22.57;;;20.23;;
6027;SDS011;3042;43.194;27.646;2023-04-08T12:23:58;37.73;;;21.33;;
6027;SDS011;3042;43.194;27.646;2023-04-08T12:26:25;33.90;;;21.57;;
6027;SDS011;3042;43.194;27.646;2023-04-08T12:28:53;37.27;;;22.70;;
6027;SDS011;3042;43.194;27.646;2023-04-08T12:31:21;22.43;;;20.07;;
6027;SDS011;3042;43.194;27.646;2023-04-08T12:33:48;26.53;;;23.63;;
6027;SDS011;3042;43.194;27.646;2023-04-08T12:36:15;21.20;;;19.50;;
6027;SDS011;3042;43.194;27.646;2023-04-08T12:38:42;90.30;;;30.13;;
6027;SDS011;3042;43.194;27.646;2023-04-08T12:41:10;24.03;;;21.67;;
6027;SDS011;3042;43.194;27.646;2023-04-08T12:43:37;55.23;;;23.93;;
6027;SDS011;3042;43.194;27.646;2023-04-08T12:46:04;77.23;;;25.43;;
6027;SDS011;3042;43.194;27.646;2023-04-08T12:48:33;22.97;;;20.77;;
6027;SDS011;3042;43.194;27.646;2023-04-08T12:51:00;56.63;;;22.83;;
6027;SDS011;3042;43.194;27.646;2023-04-08T12:53:28;41.20;;;22.03;;
6027;SDS011;3042;43.194;27.646;2023-04-08T12:55:55;45.03;;;22.40;;
6027;SDS011;3042;43.194;27.646;2023-04-08T12:58:22;26.73;;;21.40;;
6027;SDS011;3042;43.194;27.646;2023-04-08T13:00:50;40.17;;;22.40;;
6027;SDS011;3042;43.194;27.646;2023-04-08T13:03:17;60.77;;;23.77;;
6027;SDS011;3042;43.194;27.646;2023-04-08T13:05:45;25.37;;;23.30;;
6027;SDS011;3042;43.194;27.646;2023-04-08T13:08:12;32.57;;;22.33;;
6027;SDS011;3042;43.194;27.646;2023-04-08T13:10:41;22.10;;;19.90;;
6027;SDS011;3042;43.194;27.646;2023-04-08T13:13:08;24.43;;;22.10;;
6027;SDS011;3042;43.194;27.646;2023-04-08T13:15:35;25.23;;;21.20;;
6027;SDS011;3042;43.194;27.646;2023-04-08T13:18:03;40.00;;;23.53;;
6027;SDS011;3042;43.194;27.646;2023-04-08T13:20:30;32.43;;;21.40;;
6027;SDS011;3042;43.194;27.646;2023-04-08T13:22:59;29.83;;;19.90;;
6027;SDS011;3042;43.194;27.646;2023-04-08T13:25:26;22.10;;;20.60;;
6027;SDS011;3042;43.194;27.646;2023-04-08T13:27:53;26.97;;;21.20;;
6027;SDS011;3042;43.194;27.646;2023-04-08T13:30:20;23.27;;;21.03;;
6027;SDS011;3042;43.194;27.646;2023-04-08T13:32:47;129.63;;;29.20;;
6027;SDS011;3042;43.194;27.646;2023-04-08T13:35:15;39.07;;;22.57;;
6027;SDS011;3042;43.194;27.646;2023-04-08T13:37:42;39.67;;;23.70;;
6027;SDS011;3042;43.194;27.646;2023-04-08T13:40:11;33.20;;;21.10;;
6027;SDS011;3042;43.194;27.646;2023-04-08T13:42:38;20.03;;;18.50;;
6027;SDS011;3042;43.194;27.646;2023-04-08T13:45:06;25.00;;;20.77;;
6027;SDS011;3042;43.194;27.646;2023-04-08T13:47:33;24.47;;;21.10;;
6027;SDS011;3042;43.194;27.646;2023-04-08T13:50:01;24.33;;;20.40;;
6027;SDS011;3042;43.194;27.646;2023-04-08T13:52:28;36.87;;;20.90;;
6027;SDS011;3042;43.194;27.646;2023-04-08T13:54:55;40.83;;;23.07;;
6027;SDS011;3042;43.194;27.646;2023-04-08T13:57:24;39.10;;;23.37;;
6027;SDS011;3042;43.194;27.646;2023-04-08T13:59:51;57.60;;;21.90;;
6027;SDS011;3042;43.194;27.646;2023-04-08T14:02:18;46.03;;;25.23;;
6027;SDS011;3042;43.194;27.646;2023-04-08T14:04:46;46.83;;;24.30;;
6027;SDS011;3042;43.194;27.646;2023-04-08T14:07:13;111.60;;;25.57;;
6027;SDS011;3042;43.194;27.646;2023-04-08T14:09:40;22.80;;;18.90;;
6027;SDS011;3042;43.194;27.646;2023-04-08T14:12:07;20.33;;;18.57;;
6027;SDS011;3042;43.194;27.646;2023-04-08T14:14:36;21.93;;;20.13;;
6027;SDS011;3042;43.194;27.646;2023-04-08T14:17:03;23.53;;;20.60;;
6027;SDS011;3042;43.194;27.646;2023-04-08T14:19:30;20.53;;;18.67;;
6027;SDS011;3042;43.194;27.646;2023-04-08T14:21:57;21.07;;;19.27;;
6027;SDS011;3042;43.194;27.646;2023-04-08T14:24:25;33.93;;;21.27;;
6027;SDS011;3042;43.194;27.646;2023-04-08T14:26:52;22.87;;;20.73;;
6027;SDS011;3042;43.194;27.646;2023-04-08T14:29:19;23.07;;;20.63;;
6027;SDS011;3042;43.194;27.646;2023-04-08T14:31:48;22.20;;;20.30;;
6027;SDS011;3042;43.194;27.646;2023-04-08T14:34:15;21.10;;;19.03;;
6027;SDS011;3042;43.194;27.646;2023-04-08T14:36:42;28.50;;;19.53;;
6027;SDS011;3042;43.194;27.646;2023-04-08T14:39:10;23.20;;;20.80;;
6027;SDS011;3042;43.194;27.646;2023-04-08T14:41:37;21.23;;;19.77;;
6027;SDS011;3042;43.194;27.646;2023-04-08T14:44:04;47.83;;;19.83;;
6027;SDS011;3042;43.194;27.646;2023-04-08T14:46:32;22.13;;;19.90;;
6027;SDS011;3042;43.194;27.646;2023-04-08T14:49:00;19.73;;;18.53;;
6027;SDS011;3042;43.194;27.646;2023-04-08T14:51:27;44.23;;;21.77;;
6027;SDS011;3042;43.194;27.646;2023-04-08T14:53:56;22.30;;;20.17;;
6027;SDS011;3042;43.194;27.646;2023-04-08T14:56:23;53.97;;;21.60;;
6027;SDS011;3042;43.194;27.646;2023-04-08T14:58:50;22.37;;;20.30;;
6027;SDS011;3042;43.194;27.646;2023-04-08T15:01:17;90.00;;;26.70;;
6027;SDS011;3042;43.194;27.646;2023-04-08T15:03:44;23.70;;;20.20;;
6027;SDS011;3042;43.194;27.646;2023-04-08T15:06:13;24.43;;;22.70;;